Time;durP1;ratioP1;P1;durP2;ratioP2;P2;SDS_P1;SDS_P2;PMS_P1;PMS_P2;Temp;Humidity;BMP_temperature;BMP_pressure;BME280_temperature;BME280_humidity;BME280_pressure;Samples;Min_cycle;Max_cycle;Signal;HPM_P1;HPM_P2
2024/01/28 00:03:32;;;;;;;180.38;169.68;;;1.60;99.90;;;;;;12635829;28;20044;-79
2024/01/28 00:09:34;;;;;;;179.23;168.77;;;1.50;99.90;;;;;;12642794;28;20048;-79
2024/01/28 00:15:36;;;;;;;175.10;164.93;;;1.50;99.90;;;;;;12636412;28;20080;-78
2024/01/28 00:21:38;;;;;;;177.68;167.52;;;1.40;99.90;;;;;;12630094;28;20122;-77
2024/01/28 00:27:40;;;;;;;176.82;166.93;;;1.30;99.90;;;;;;12615266;28;20056;-78
2024/01/28 00:33:42;;;;;;;171.35;161.45;;;1.30;99.90;;;;;;12646595;28;20101;-78
2024/01/28 00:39:44;;;;;;;161.63;152.73;;;1.30;99.90;;;;;;12643767;28;20059;-78
2024/01/28 00:45:46;;;;;;;157.68;148.38;;;1.50;99.90;;;;;;12635878;28;20044;-78
2024/01/28 00:51:49;;;;;;;168.13;158.52;;;1.60;99.90;;;;;;12637372;28;20048;-78
2024/01/28 00:57:51;;;;;;;159.73;150.65;;;1.50;99.90;;;;;;12622792;28;20099;-77
2024/01/28 01:03:53;;;;;;;157.43;148.52;;;1.70;99.90;;;;;;12637507;28;20452;-77
2024/01/28 01:09:56;;;;;;;159.23;149.88;;;1.80;99.90;;;;;;12606987;28;20055;-79
2024/01/28 01:15:58;;;;;;;161.27;151.98;;;2.00;99.90;;;;;;12606441;28;20052;-79
2024/01/28 01:22:02;;;;;;;165.45;155.95;;;1.90;99.90;;;;;;12602047;28;20087;-79
2024/01/28 01:28:04;;;;;;;168.82;158.98;;;2.00;99.90;;;;;;12611998;28;20056;-80
2024/01/28 01:34:06;;;;;;;169.40;159.82;;;1.90;99.90;;;;;;12619580;28;20064;-79
2024/01/28 01:40:09;;;;;;;182.40;172.10;;;1.80;99.90;;;;;;12610940;28;20059;-79
2024/01/28 01:46:12;;;;;;;172.25;161.82;;;1.80;99.90;;;;;;12596072;28;20052;-79
2024/01/28 01:52:16;;;;;;;167.70;157.88;;;1.60;99.90;;;;;;12611860;28;20402;-79
2024/01/28 01:58:18;;;;;;;164.90;155.07;;;1.50;99.90;;;;;;12616532;28;20099;-79
2024/01/28 02:04:23;;;;;;;161.90;152.43;;;1.10;99.90;;;;;;12600252;28;20131;-80
2024/01/28 02:10:26;;;;;;;153.48;144.52;;;1.10;99.90;;;;;;12591917;28;20130;-79
2024/01/28 02:16:28;;;;;;;153.88;144.93;;;1.30;99.90;;;;;;12599413;28;20127;-82
2024/01/28 02:22:30;;;;;;;147.50;138.70;;;1.40;99.90;;;;;;12612210;28;20064;-82
2024/01/28 02:28:32;;;;;;;152.18;143.52;;;1.50;99.90;;;;;;12595677;28;20056;-82
2024/01/28 02:34:34;;;;;;;161.77;152.35;;;1.60;99.90;;;;;;12606398;28;20043;-81
2024/01/28 02:40:36;;;;;;;163.70;154.27;;;1.50;99.90;;;;;;12603757;28;20053;-82
2024/01/28 02:46:38;;;;;;;168.30;158.30;;;1.40;99.90;;;;;;12601296;28;20055;-82
2024/01/28 02:52:39;;;;;;;162.05;152.65;;;1.30;99.90;;;;;;12604996;28;20052;-82
2024/01/28 02:58:42;;;;;;;158.65;149.25;;;1.40;99.90;;;;;;12588831;28;20515;-82
2024/01/28 03:04:44;;;;;;;159.70;149.95;;;1.20;99.90;;;;;;12595144;28;20087;-83
2024/01/28 03:10:45;;;;;;;160.38;151.13;;;1.00;99.90;;;;;;12621132;28;20059;-83
2024/01/28 03:16:48;;;;;;;162.27;152.93;;;0.90;99.90;;;;;;12588905;28;20507;-82
2024/01/28 03:22:51;;;;;;;161.48;152.02;;;0.60;99.90;;;;;;12614136;28;20063;-81
2024/01/28 03:28:53;;;;;;;158.13;149.07;;;0.60;99.90;;;;;;12612331;28;20416;-79
2024/01/28 03:34:54;;;;;;;165.10;155.57;;;0.40;99.90;;;;;;12623460;28;20091;-80
2024/01/28 03:40:56;;;;;;;164.13;153.98;;;0.60;99.90;;;;;;12607868;28;20056;-80
2024/01/28 03:46:58;;;;;;;164.05;154.25;;;0.40;99.90;;;;;;12642456;28;20055;-80
2024/01/28 03:53:00;;;;;;;158.57;148.82;;;0.20;99.90;;;;;;12582652;28;1101828;-80
2024/01/28 03:59:02;;;;;;;156.23;146.95;;;0.20;99.90;;;;;;12631943;28;20480;-78
2024/01/28 04:05:05;;;;;;;150.88;142.07;;;0.10;99.90;;;;;;12618407;28;20080;-80
2024/01/28 04:11:07;;;;;;;139.10;131.10;;;0.30;99.90;;;;;;12626781;28;20052;-79
2024/01/28 04:17:09;;;;;;;144.55;136.48;;;0.60;99.90;;;;;;12626289;28;20059;-80
2024/01/28 04:23:11;;;;;;;147.10;138.45;;;0.80;99.90;;;;;;12630064;28;20063;-79
2024/01/28 04:29:12;;;;;;;148.70;139.85;;;0.90;99.90;;;;;;12621417;28;20080;-79
2024/01/28 04:35:14;;;;;;;159.15;149.35;;;0.80;99.90;;;;;;12626836;28;20060;-80
2024/01/28 04:41:16;;;;;;;160.55;150.68;;;0.50;99.90;;;;;;12612621;28;20252;-82
2024/01/28 04:47:18;;;;;;;163.68;153.45;;;0.10;99.90;;;;;;12622640;28;20045;-83
2024/01/28 04:53:21;;;;;;;163.93;154.05;;;0.10;99.90;;;;;;12618112;28;20059;-84
2024/01/28 04:59:24;;;;;;;167.95;157.60;;;0.10;99.90;;;;;;12622542;28;20082;-84
2024/01/28 05:05:26;;;;;;;165.98;156.15;;;0.00;99.90;;;;;;12606066;28;20056;-84
2024/01/28 05:11:28;;;;;;;175.05;164.15;;;0.00;99.90;;;;;;12596075;28;20060;-84
2024/01/28 05:17:30;;;;;;;174.48;163.38;;;0.00;99.90;;;;;;12616536;28;20048;-84
2024/01/28 05:23:32;;;;;;;181.38;170.20;;;-0.10;99.90;;;;;;12598549;28;20510;-83
2024/01/28 05:29:34;;;;;;;177.88;166.55;;;-0.20;99.90;;;;;;12612348;28;20083;-84
2024/01/28 05:35:36;;;;;;;179.10;167.95;;;-0.20;99.90;;;;;;12612650;28;20048;-83
2024/01/28 05:41:38;;;;;;;179.45;168.20;;;-0.40;99.90;;;;;;12619724;28;20389;-83
2024/01/28 05:47:40;;;;;;;177.43;166.00;;;-0.40;99.90;;;;;;12597060;28;20053;-84
2024/01/28 05:53:42;;;;;;;170.68;160.48;;;-0.50;99.90;;;;;;12645362;28;20040;-84
2024/01/28 05:59:44;;;;;;;169.85;159.00;;;-0.40;99.90;;;;;;12604652;28;20485;-84
2024/01/28 06:05:46;;;;;;;167.05;156.75;;;-0.40;99.90;;;;;;12592495;28;20086;-84
2024/01/28 06:11:48;;;;;;;175.48;164.30;;;-0.40;99.90;;;;;;12614244;28;20044;-83
2024/01/28 06:17:50;;;;;;;173.88;162.95;;;-0.40;99.90;;;;;;12610980;28;20064;-83
2024/01/28 06:23:52;;;;;;;170.15;159.70;;;-0.50;99.90;;;;;;12602809;28;20055;-83
2024/01/28 06:29:57;;;;;;;167.50;156.80;;;-0.50;99.90;;;;;;12592099;28;20087;-85
2024/01/28 06:36:00;;;;;;;166.13;155.93;;;-0.50;99.90;;;;;;12605069;28;20516;-83
2024/01/28 06:42:02;;;;;;;163.10;152.80;;;-0.50;99.90;;;;;;12609532;28;20063;-83
2024/01/28 06:48:04;;;;;;;160.60;150.63;;;-0.40;99.90;;;;;;12607900;28;20056;-82
2024/01/28 06:54:06;;;;;;;155.60;146.05;;;-0.50;99.90;;;;;;12601189;28;20061;-83
2024/01/28 07:00:10;;;;;;;138.43;130.25;;;-0.30;99.90;;;;;;12608388;28;20534;-82
2024/01/28 07:06:15;;;;;;;140.85;132.35;;;0.00;99.90;;;;;;12599656;28;20516;-83
2024/01/28 07:12:17;;;;;;;148.18;139.25;;;0.10;99.90;;;;;;12590837;28;20159;-83
2024/01/28 07:18:19;;;;;;;163.18;153.05;;;-0.10;99.90;;;;;;12624834;28;20505;-81
2024/01/28 07:24:21;;;;;;;166.38;156.30;;;-0.30;99.90;;;;;;12589292;28;20053;-83
2024/01/28 07:30:23;;;;;;;157.27;147.55;;;-0.30;99.90;;;;;;12603482;28;20044;-83
2024/01/28 07:36:25;;;;;;;158.65;148.48;;;-0.40;99.90;;;;;;12591423;28;20138;-83
2024/01/28 07:42:27;;;;;;;152.05;142.82;;;-0.40;99.90;;;;;;12607923;28;20052;-83
2024/01/28 07:48:29;;;;;;;154.13;144.88;;;-0.30;99.90;;;;;;12603907;28;20497;-83
2024/01/28 07:54:31;;;;;;;155.50;146.07;;;-0.20;99.90;;;;;;12594119;28;20053;-84
2024/01/28 08:00:33;;;;;;;137.70;129.77;;;-0.10;99.90;;;;;;12599492;28;20503;-83
2024/01/28 08:06:35;;;;;;;87.90;83.53;;;0.00;99.90;;;;;;12594217;28;20135;-83
2024/01/28 08:12:37;;;;;;;136.75;129.23;;;1.00;99.90;;;;;;12598149;28;20059;-82
2024/01/28 08:18:39;;;;;;;124.93;118.47;;;1.40;99.90;;;;;;12619918;28;20057;-82
2024/01/28 08:24:41;;;;;;;125.30;118.22;;;1.80;99.90;;;;;;12604457;28;20051;-82
2024/01/28 08:30:45;;;;;;;100.57;95.28;;;1.90;99.90;;;;;;12611299;28;20164;-82
2024/01/28 08:36:47;;;;;;;92.70;87.88;;;2.00;99.90;;;;;;12602514;28;20063;-82
2024/01/28 08:42:49;;;;;;;123.07;116.65;;;2.10;99.90;;;;;;12604775;28;20079;-81
2024/01/28 08:48:52;;;;;;;104.60;99.55;;;2.70;99.90;;;;;;12621330;28;20432;-81
2024/01/28 08:54:55;;;;;;;96.57;91.95;;;3.10;99.90;;;;;;12609670;28;20143;-81
2024/01/28 09:00:57;;;;;;;52.08;49.15;;;3.30;99.90;;;;;;12613946;28;20135;-82
2024/01/28 09:06:59;;;;;;;37.78;35.58;;;3.60;99.90;;;;;;12639577;28;20141;-83
2024/01/28 09:13:01;;;;;;;60.20;57.08;;;3.70;99.90;;;;;;12590044;28;20171;-82
2024/01/28 09:19:04;;;;;;;61.60;58.22;;;3.60;99.90;;;;;;12631513;28;20052;-82
2024/01/28 09:25:06;;;;;;;59.92;56.92;;;3.90;99.90;;;;;;12604676;28;20059;-81
2024/01/28 09:31:08;;;;;;;36.78;34.40;;;3.90;99.90;;;;;;12604662;28;20048;-82
2024/01/28 09:37:10;;;;;;;47.05;44.28;;;4.00;99.90;;;;;;12621030;28;20053;-82
2024/01/28 09:43:28;;;;;;;56.33;53.20;;;4.00;99.90;;;;;;12611965;28;20070;-82
2024/01/28 09:49:39;;;;;;;45.70;43.03;;;4.00;99.90;;;;;;12609979;28;20041;-82
2024/01/28 09:55:42;;;;;;;99.40;94.25;;;4.10;99.90;;;;;;12578496;28;20056;-82
2024/01/28 10:01:44;;;;;;;76.00;71.85;;;4.30;99.90;;;;;;12567077;28;20052;-83
2024/01/28 10:07:48;;;;;;;59.90;56.90;;;4.40;99.90;;;;;;12574990;28;20071;-83
2024/01/28 10:13:51;;;;;;;55.30;52.33;;;4.60;99.90;;;;;;12578699;28;20403;-83
2024/01/28 10:19:52;;;;;;;45.13;42.25;;;4.80;99.90;;;;;;12571985;28;20049;-83
2024/01/28 10:26:00;;;;;;;34.90;33.00;;;5.00;99.90;;;;;;12585602;28;20051;-82
2024/01/28 10:32:02;;;;;;;36.95;34.53;;;5.20;99.90;;;;;;12576340;28;20515;-81
2024/01/28 10:38:05;;;;;;;28.60;27.00;;;5.50;99.90;;;;;;12569369;28;20136;-81
2024/01/28 10:44:08;;;;;;;30.50;28.40;;;5.70;99.90;;;;;;12567165;28;20063;-82
2024/01/28 10:50:13;;;;;;;37.70;35.33;;;5.80;99.90;;;;;;12574220;28;20063;-80
2024/01/28 10:56:17;;;;;;;34.97;32.88;;;6.00;99.90;;;;;;12573503;28;20044;-81
2024/01/28 11:02:22;;;;;;;28.25;26.73;;;6.10;99.90;;;;;;12571537;28;20488;-80
2024/01/28 11:08:25;;;;;;;20.50;19.38;;;6.30;99.90;;;;;;12576567;28;20747;-81
2024/01/28 11:14:27;;;;;;;22.08;20.52;;;6.40;99.90;;;;;;12569202;28;20052;-80
2024/01/28 11:20:33;;;;;;;15.90;14.60;;;6.50;99.90;;;;;;12568770;28;20056;-80
2024/01/28 11:26:39;;;;;;;18.65;17.40;;;6.40;99.90;;;;;;12584713;28;20397;-81
2024/01/28 11:32:45;;;;;;;17.67;16.45;;;6.40;99.90;;;;;;12545668;28;20049;-81
2024/01/28 11:38:52;;;;;;;22.98;21.42;;;6.70;99.90;;;;;;12577952;28;20619;-79
2024/01/28 11:44:54;;;;;;;16.33;15.10;;;6.80;99.90;;;;;;12585670;28;20056;-79
2024/01/28 11:50:57;;;;;;;16.88;15.68;;;7.00;99.90;;;;;;12600544;28;20052;-79
2024/01/28 11:57:00;;;;;;;17.58;16.23;;;7.00;99.90;;;;;;12594053;28;20052;-79
2024/01/28 12:03:03;;;;;;;18.92;17.65;;;7.20;99.90;;;;;;12595831;28;20060;-79
2024/01/28 12:09:05;;;;;;;13.50;12.48;;;7.40;99.90;;;;;;12598170;28;20056;-79
2024/01/28 12:15:17;;;;;;;10.15;9.10;;;7.50;99.90;;;;;;12587293;28;20107;-80
2024/01/28 12:21:24;;;;;;;14.40;13.38;;;7.60;99.90;;;;;;12577307;28;20051;-79
2024/01/28 12:27:26;;;;;;;11.18;10.13;;;7.90;99.90;;;;;;12592394;28;20048;-80
2024/01/28 12:33:29;;;;;;;8.52;7.72;;;8.00;99.90;;;;;;12569683;28;20056;-79
2024/01/28 12:39:31;;;;;;;9.13;7.18;;;8.00;99.90;;;;;;12578062;28;20045;-79
2024/01/28 12:45:33;;;;;;;6.68;5.50;;;8.10;99.90;;;;;;12573958;28;20060;-80
2024/01/28 12:51:36;;;;;;;8.38;7.53;;;8.10;99.90;;;;;;12599211;28;20197;-80
2024/01/28 12:57:38;;;;;;;6.22;4.43;;;8.20;99.90;;;;;;12611199;28;20046;-81
2024/01/28 13:03:42;;;;;;;5.20;3.03;;;8.30;99.90;;;;;;12627142;28;20060;-79
2024/01/28 13:09:44;;;;;;;4.72;2.55;;;8.30;99.90;;;;;;12635666;28;20075;-80
2024/01/28 13:15:46;;;;;;;5.70;2.17;;;8.40;99.90;;;;;;12616532;28;20045;-80
2024/01/28 13:21:48;;;;;;;4.38;2.53;;;8.50;99.90;;;;;;12616561;28;20108;-80
2024/01/28 13:27:50;;;;;;;3.35;1.80;;;8.50;99.90;;;;;;12613848;28;20060;-79
2024/01/28 13:33:53;;;;;;;3.95;1.90;;;8.40;99.90;;;;;;12615543;28;20045;-79
2024/01/28 13:39:55;;;;;;;6.07;1.80;;;8.40;99.90;;;;;;12617218;28;20082;-81
2024/01/28 13:45:57;;;;;;;3.20;1.65;;;8.30;99.90;;;;;;12615741;28;20052;-82
2024/01/28 13:51:59;;;;;;;4.07;1.50;;;8.40;99.90;;;;;;12627942;28;20053;-80
2024/01/28 13:58:01;;;;;;;4.70;2.05;;;8.40;99.90;;;;;;12545198;28;20072;-81
2024/01/28 14:04:03;;;;;;;4.30;1.90;;;8.40;99.90;;;;;;12564362;28;20037;-81
2024/01/28 14:10:06;;;;;;;3.67;2.03;;;8.40;99.90;;;;;;12568899;28;20060;-80
2024/01/28 14:16:08;;;;;;;3.55;1.60;;;8.30;99.90;;;;;;12549038;28;20044;-80
2024/01/28 14:22:10;;;;;;;5.15;2.40;;;8.30;99.90;;;;;;12532354;28;20161;-82
2024/01/28 14:28:12;;;;;;;3.45;1.90;;;8.30;99.90;;;;;;12532873;28;20072;-81
2024/01/28 14:34:14;;;;;;;3.38;1.60;;;8.20;99.90;;;;;;12539646;28;20573;-81
2024/01/28 14:40:17;;;;;;;3.63;1.63;;;8.20;99.90;;;;;;12529549;28;20431;-80
2024/01/28 14:46:19;;;;;;;4.32;1.60;;;8.10;99.90;;;;;;12532795;28;20056;-80
2024/01/28 14:52:21;;;;;;;4.75;1.58;;;8.10;99.90;;;;;;12528363;28;20049;-81
2024/01/28 14:58:22;;;;;;;3.50;1.38;;;8.00;99.90;;;;;;12508341;28;20056;-81
2024/01/28 15:04:24;;;;;;;4.03;1.42;;;7.90;99.90;;;;;;12502632;28;20060;-80
2024/01/28 15:10:27;;;;;;;3.75;1.70;;;7.90;99.90;;;;;;12517080;28;20064;-82
2024/01/28 15:16:29;;;;;;;3.47;1.50;;;7.80;99.90;;;;;;12521563;28;20065;-82
2024/01/28 15:22:31;;;;;;;3.85;1.50;;;7.80;99.90;;;;;;12521497;28;20069;-82
2024/01/28 15:28:33;;;;;;;5.78;1.30;;;7.70;99.90;;;;;;12522521;28;20064;-83
2024/01/28 15:34:40;;;;;;;2.50;1.20;;;7.60;99.90;;;;;;12519016;28;20136;-83
2024/01/28 15:40:43;;;;;;;1.95;1.20;;;7.20;99.90;;;;;;12535414;28;20053;-83
2024/01/28 15:46:45;;;;;;;2.63;1.38;;;7.10;99.90;;;;;;12526609;28;20061;-83
2024/01/28 15:52:47;;;;;;;2.92;1.48;;;6.80;99.90;;;;;;12534330;28;20059;-83
2024/01/28 15:58:49;;;;;;;3.85;1.63;;;6.60;99.90;;;;;;12598399;28;20049;-83
2024/01/28 16:04:53;;;;;;;3.95;1.30;;;6.80;99.90;;;;;;12578885;28;20053;-83
2024/01/28 16:10:55;;;;;;;4.43;2.00;;;6.90;99.90;;;;;;12599580;28;20397;-82
2024/01/28 16:16:56;;;;;;;3.47;1.50;;;6.50;99.90;;;;;;12590493;28;20049;-83
2024/01/28 16:22:58;;;;;;;3.88;1.45;;;6.60;99.90;;;;;;12585301;28;20052;-80
2024/01/28 16:29:01;;;;;;;3.80;1.30;;;6.50;99.90;;;;;;12593468;28;20060;-78
2024/01/28 16:35:03;;;;;;;1.60;1.08;;;6.50;99.90;;;;;;12588371;28;20044;-79
2024/01/28 16:41:09;;;;;;;2.45;1.02;;;6.80;99.90;;;;;;12584605;28;20189;-78
2024/01/28 16:47:13;;;;;;;3.88;1.10;;;7.00;99.90;;;;;;12575786;28;20060;-78
2024/01/28 16:53:15;;;;;;;4.57;1.30;;;7.30;99.90;;;;;;12606725;28;20059;-79
2024/01/28 16:59:17;;;;;;;2.75;1.10;;;7.40;99.90;;;;;;12642531;28;20058;-78
2024/01/28 17:05:19;;;;;;;2.20;0.95;;;7.30;99.90;;;;;;12638439;28;20056;-78
2024/01/28 17:11:21;;;;;;;3.28;1.05;;;7.30;99.90;;;;;;12663500;28;20051;-78
2024/01/28 17:17:24;;;;;;;4.13;1.40;;;7.20;99.90;;;;;;12641404;28;20112;-79
2024/01/28 17:23:27;;;;;;;4.90;1.40;;;7.10;99.90;;;;;;12638261;28;20044;-82
2024/01/28 17:29:29;;;;;;;3.22;1.20;;;7.20;99.90;;;;;;12640750;28;20527;-84
2024/01/28 17:35:31;;;;;;;3.83;1.08;;;7.20;99.90;;;;;;12618038;28;20071;-84
2024/01/28 17:41:33;;;;;;;2.65;1.02;;;7.20;99.90;;;;;;12617407;28;20048;-80
2024/01/28 17:47:34;;;;;;;4.97;1.27;;;7.20;99.90;;;;;;12653463;28;20036;-81
2024/01/28 17:53:41;;;;;;;1.98;1.20;;;7.30;99.90;;;;;;12657730;28;20056;-80
2024/01/28 17:59:44;;;;;;;2.67;1.17;;;7.30;99.90;;;;;;12679504;28;20028;-80
2024/01/28 18:05:47;;;;;;;4.55;1.30;;;7.30;99.90;;;;;;12675692;28;20036;-81
2024/01/28 18:11:49;;;;;;;2.58;1.35;;;7.30;99.90;;;;;;12676824;28;20054;-80
2024/01/28 18:17:51;;;;;;;4.97;1.33;;;7.10;99.90;;;;;;12663641;28;20058;-80
2024/01/28 18:23:53;;;;;;;2.53;1.30;;;7.10;99.90;;;;;;12668976;28;20036;-80
2024/01/28 18:29:56;;;;;;;4.97;1.70;;;7.10;99.90;;;;;;12684784;28;20028;-81
2024/01/28 18:35:58;;;;;;;3.42;1.17;;;7.10;99.90;;;;;;12647252;28;20072;-80
2024/01/28 18:42:00;;;;;;;4.05;1.20;;;7.10;99.90;;;;;;12629031;28;20060;-77
2024/01/28 18:48:02;;;;;;;4.22;1.35;;;7.10;99.90;;;;;;12656481;28;20056;-79
2024/01/28 18:54:04;;;;;;;2.72;1.00;;;7.10;99.90;;;;;;12630269;28;20095;-77
2024/01/28 19:00:06;;;;;;;3.30;1.27;;;7.00;99.90;;;;;;12610395;28;20052;-78
2024/01/28 19:06:09;;;;;;;3.03;1.10;;;7.00;99.90;;;;;;12618711;28;20063;-80
2024/01/28 19:12:12;;;;;;;2.45;0.95;;;7.10;99.90;;;;;;12668401;28;20049;-83
2024/01/28 19:18:15;;;;;;;3.78;1.58;;;7.10;99.90;;;;;;12631070;28;20419;-78
2024/01/28 19:24:17;;;;;;;2.55;1.20;;;7.00;99.90;;;;;;12630544;28;20044;-79
2024/01/28 19:30:19;;;;;;;2.58;1.40;;;7.00;99.90;;;;;;12624156;28;20048;-78
2024/01/28 19:36:21;;;;;;;2.47;1.27;;;6.90;99.90;;;;;;12612449;28;20103;-77
2024/01/28 19:42:26;;;;;;;3.90;1.40;;;7.00;99.90;;;;;;12631256;28;20052;-78
2024/01/28 19:48:28;;;;;;;2.75;1.23;;;7.00;99.90;;;;;;12619654;28;20075;-78
2024/01/28 19:54:30;;;;;;;3.38;1.23;;;6.90;99.90;;;;;;12644336;28;20043;-80
2024/01/28 20:00:33;;;;;;;1.85;1.05;;;6.80;99.90;;;;;;12640789;28;20061;-81
2024/01/28 20:06:36;;;;;;;3.40;1.65;;;6.80;99.90;;;;;;12638219;28;20060;-80
2024/01/28 20:12:39;;;;;;;6.20;1.38;;;6.80;99.90;;;;;;12664415;28;20064;-81
2024/01/28 20:18:41;;;;;;;3.15;1.58;;;6.70;99.90;;;;;;12657834;28;20052;-81
2024/01/28 20:24:43;;;;;;;4.13;1.38;;;6.70;99.90;;;;;;12663896;28;20055;-81
2024/01/28 20:30:45;;;;;;;4.32;1.13;;;6.50;99.90;;;;;;12654913;28;20048;-80
2024/01/28 20:36:48;;;;;;;5.15;1.25;;;6.60;99.90;;;;;;12658885;28;20048;-81
2024/01/28 20:42:50;;;;;;;3.47;1.27;;;6.50;99.90;;;;;;12664044;28;20052;-81
2024/01/28 20:48:52;;;;;;;2.80;1.25;;;6.50;99.90;;;;;;12647440;28;20097;-81
2024/01/28 20:54:55;;;;;;;2.95;1.10;;;6.50;99.90;;;;;;12654999;28;20063;-80
2024/01/28 21:00:56;;;;;;;2.90;1.38;;;6.60;99.90;;;;;;12652522;28;20044;-79
2024/01/28 21:06:59;;;;;;;6.53;1.40;;;6.70;99.90;;;;;;12627295;28;20071;-79
2024/01/28 21:13:01;;;;;;;6.32;1.30;;;6.80;99.90;;;;;;12622718;28;20094;-79
2024/01/28 21:19:04;;;;;;;3.80;1.50;;;6.70;99.90;;;;;;12615834;28;20468;-79
2024/01/28 21:25:06;;;;;;;2.47;1.15;;;6.60;99.90;;;;;;12608769;28;20114;-79
2024/01/28 21:31:08;;;;;;;2.63;0.98;;;6.60;99.90;;;;;;12599514;28;20052;-80
2024/01/28 21:37:10;;;;;;;2.95;1.27;;;6.50;99.90;;;;;;12604351;28;20056;-79
2024/01/28 21:43:14;;;;;;;3.97;1.20;;;6.70;99.90;;;;;;12618871;28;20062;-78
2024/01/28 21:49:16;;;;;;;2.35;1.13;;;6.60;99.90;;;;;;12605523;28;20146;-78
2024/01/28 21:55:19;;;;;;;2.42;1.00;;;6.60;99.90;;;;;;12617423;28;20475;-79
2024/01/28 22:01:21;;;;;;;2.40;0.98;;;6.60;99.90;;;;;;12618967;28;20082;-79
2024/01/28 22:07:23;;;;;;;2.55;1.17;;;6.70;99.90;;;;;;12607510;28;20405;-79
2024/01/28 22:13:26;;;;;;;3.20;1.20;;;6.80;99.90;;;;;;12635856;28;20533;-79
2024/01/28 22:19:28;;;;;;;2.40;0.88;;;6.80;99.90;;;;;;12615014;28;20048;-78
2024/01/28 22:25:30;;;;;;;3.72;1.30;;;6.90;99.90;;;;;;12618183;28;20556;-77
2024/01/28 22:31:31;;;;;;;3.22;1.02;;;6.90;99.90;;;;;;12625431;28;20071;-79
2024/01/28 22:37:35;;;;;;;5.25;1.27;;;6.80;99.90;;;;;;12616651;28;20055;-78
2024/01/28 22:43:37;;;;;;;3.70;1.10;;;6.70;99.90;;;;;;12612708;28;20063;-78
2024/01/28 22:49:39;;;;;;;3.80;1.33;;;6.70;99.90;;;;;;12616839;28;20055;-78
2024/01/28 22:55:41;;;;;;;3.72;1.35;;;6.60;99.90;;;;;;12610672;28;20099;-78
2024/01/28 23:01:43;;;;;;;2.38;1.00;;;6.40;99.90;;;;;;12609040;28;20123;-78
2024/01/28 23:07:46;;;;;;;3.75;1.40;;;6.50;99.90;;;;;;12612471;28;20622;-76
2024/01/28 23:13:49;;;;;;;2.72;1.92;;;6.50;99.90;;;;;;12607427;28;20049;-77
2024/01/28 23:19:51;;;;;;;2.53;1.10;;;6.60;99.90;;;;;;12616066;28;21524;-81
2024/01/28 23:25:56;;;;;;;2.65;1.02;;;6.60;99.90;;;;;;12612072;28;20052;-79
2024/01/28 23:31:58;;;;;;;4.45;1.30;;;6.60;99.90;;;;;;12595321;28;20060;-79
2024/01/28 23:38:00;;;;;;;2.47;1.00;;;6.60;99.90;;;;;;12607787;28;20051;-78
2024/01/28 23:44:02;;;;;;;2.50;1.02;;;6.70;99.90;;;;;;12610261;28;20062;-79
2024/01/28 23:50:06;;;;;;;2.67;1.30;;;6.70;99.90;;;;;;12600615;28;20059;-78
2024/01/28 23:56:08;;;;;;;5.50;1.10;;;6.60;99.90;;;;;;12550155;28;20136;-79
